Time;durP1;ratioP1;P1;durP2;ratioP2;P2;SDS_P1;SDS_P2;PMS_P1;PMS_P2;Temp;Humidity;BMP_temperature;BMP_pressure;BME280_temperature;BME280_humidity;BME280_pressure;Samples;Min_cycle;Max_cycle;Signal;HPM_P1;HPM_P2
2022/02/18 00:02:24;;;;;;;3.40;1.52;;;;;;;5.70;60.80;96524.13;1714660;82;21072;-77
2022/02/18 00:04:52;;;;;;;4.28;1.32;;;;;;;5.72;60.79;96529.73;1714762;83;20947;-76
2022/02/18 00:07:18;;;;;;;2.17;0.90;;;;;;;5.72;61.01;96528.41;1719420;82;21427;-77
2022/02/18 00:09:45;;;;;;;5.45;1.10;;;;;;;5.72;61.00;96532.83;1725661;82;21416;-78
2022/02/18 00:12:12;;;;;;;2.58;0.90;;;;;;;5.73;61.43;96543.74;1717537;83;21041;-77
2022/02/18 00:14:38;;;;;;;3.52;0.93;;;;;;;5.70;61.64;96553.03;1720086;82;21449;-76
2022/02/18 00:17:07;;;;;;;3.87;1.40;;;;;;;5.70;62.05;96560.48;1721393;83;21433;-76
2022/02/18 00:19:35;;;;;;;3.55;1.10;;;;;;;5.71;62.58;96574.46;1682153;85;21014;-77
2022/02/18 00:22:03;;;;;;;3.08;1.17;;;;;;;5.70;62.58;96574.06;1682317;85;21013;-76
2022/02/18 00:24:30;;;;;;;3.27;1.00;;;;;;;5.60;63.06;96586.66;1682059;85;21080;-77
2022/02/18 00:26:56;;;;;;;6.53;1.40;;;;;;;5.59;63.55;96587.55;1659974;86;21413;-77
2022/02/18 00:29:22;;;;;;;8.40;1.47;;;;;;;5.54;64.10;96594.28;1667140;86;21068;-77
2022/02/18 00:31:50;;;;;;;5.53;1.57;;;;;;;5.48;64.52;96592.70;1653241;87;20988;-77
2022/02/18 00:34:19;;;;;;;5.15;1.02;;;;;;;5.39;65.25;96612.69;1720323;83;21013;-77
2022/02/18 00:36:45;;;;;;;3.58;1.20;;;;;;;5.31;65.77;96608.15;1695820;83;21024;-77
2022/02/18 00:39:12;;;;;;;2.60;1.20;;;;;;;5.23;65.90;96617.58;1680704;85;21052;-77
2022/02/18 00:41:38;;;;;;;3.30;1.25;;;;;;;5.11;67.38;96616.19;1680582;85;21491;-77
2022/02/18 00:44:05;;;;;;;2.52;1.57;;;;;;;4.93;69.64;96628.94;1658852;86;21043;-77
2022/02/18 00:46:33;;;;;;;4.87;1.30;;;;;;;4.60;71.86;96640.79;1667162;86;21027;-78
2022/02/18 00:49:00;;;;;;;1.87;1.00;;;;;;;4.43;72.23;96628.12;1653119;87;21031;-77
2022/02/18 00:51:26;;;;;;;3.58;1.42;;;;;;;4.14;74.49;96654.23;1721603;83;21437;-77
2022/02/18 00:53:53;;;;;;;2.80;1.15;;;;;;;4.00;74.80;96641.48;1678128;85;20997;-80
2022/02/18 00:56:19;;;;;;;4.83;1.15;;;;;;;3.90;76.11;96657.88;1721491;83;21055;-78
2022/02/18 00:58:46;;;;;;;3.35;1.10;;;;;;;3.80;77.40;96652.02;1721368;83;21057;-78
2022/02/18 01:01:13;;;;;;;4.12;1.40;;;;;;;3.70;77.81;96657.06;1721376;83;21000;-78
2022/02/18 01:03:39;;;;;;;3.47;1.20;;;;;;;3.62;78.26;96666.85;1720768;83;21466;-79
2022/02/18 01:06:07;;;;;;;1.62;0.82;;;;;;;3.57;78.58;96677.42;1680637;85;21073;-78
2022/02/18 01:08:33;;;;;;;4.87;1.27;;;;;;;3.46;79.02;96692.53;1658544;86;21410;-79
2022/02/18 01:11:00;;;;;;;3.27;1.27;;;;;;;3.41;79.64;96696.57;1651840;86;20989;-79
2022/02/18 01:13:28;;;;;;;2.98;1.32;;;;;;;3.35;79.35;96702.80;1651924;87;20983;-79
2022/02/18 01:15:55;;;;;;;5.45;1.67;;;;;;;3.24;79.88;96717.41;1721324;83;21031;-79
2022/02/18 01:18:22;;;;;;;3.98;1.35;;;;;;;3.15;82.33;96724.14;1720678;83;21472;-79
2022/02/18 01:20:49;;;;;;;3.42;1.10;;;;;;;3.06;81.72;96723.90;1720345;83;21015;-79
2022/02/18 01:23:16;;;;;;;4.70;1.32;;;;;;;2.95;83.31;96730.64;1720171;83;21009;-79
2022/02/18 01:25:44;;;;;;;3.62;1.30;;;;;;;2.85;83.56;96737.83;1645146;85;21474;-79
2022/02/18 01:28:11;;;;;;;2.55;1.32;;;;;;;2.80;83.31;96741.41;1705733;83;21062;-80
2022/02/18 01:30:38;;;;;;;4.92;1.32;;;;;;;2.63;85.68;96736.90;1705399;83;21003;-79
2022/02/18 01:33:05;;;;;;;2.37;1.30;;;;;;;2.52;86.81;96748.02;1705815;83;21507;-79
2022/02/18 01:35:33;;;;;;;3.10;1.05;;;;;;;2.42;88.04;96746.45;1705722;83;21464;-79
2022/02/18 01:38:01;;;;;;;1.12;0.80;;;;;;;2.41;87.76;96753.87;1705593;83;21491;-79
2022/02/18 01:40:30;;;;;;;3.55;1.47;;;;;;;2.36;87.34;96745.66;1705146;84;21447;-80
2022/02/18 01:42:58;;;;;;;3.87;1.20;;;;;;;2.24;88.70;96772.88;1705421;84;21512;-80
2022/02/18 01:45:26;;;;;;;6.05;1.57;;;;;;;2.20;88.24;96772.50;1706831;83;21026;-80
2022/02/18 01:47:53;;;;;;;3.55;1.27;;;;;;;2.08;89.01;96786.63;1705607;83;21062;-80
2022/02/18 01:50:21;;;;;;;3.10;1.27;;;;;;;2.04;88.78;96782.32;1705204;83;21058;-80
2022/02/18 01:52:51;;;;;;;3.83;1.00;;;;;;;2.02;89.31;96780.19;1706395;83;21031;-80
2022/02/18 01:55:20;;;;;;;2.25;0.95;;;;;;;1.98;89.08;96796.80;1705950;83;21018;-79
2022/02/18 01:57:54;;;;;;;4.72;1.70;;;;;;;1.91;89.62;96804.31;1705736;83;21100;-79
2022/02/18 02:00:25;;;;;;;2.47;1.10;;;;;;;1.82;89.62;96805.28;1706019;83;21042;-79
2022/02/18 02:02:58;;;;;;;2.58;1.15;;;;;;;1.77;89.22;96818.86;1706101;84;21030;-80
2022/02/18 02:05:25;;;;;;;1.92;1.22;;;;;;;1.71;88.74;96824.58;1705913;83;21413;-80
2022/02/18 02:07:52;;;;;;;5.42;1.62;;;;;;;1.70;88.15;96833.31;1707355;83;21065;-79
2022/02/18 02:10:19;;;;;;;3.40;1.10;;;;;;;1.65;91.44;96840.77;1707275;83;21037;-79
2022/02/18 02:12:52;;;;;;;4.33;1.40;;;;;;;1.57;92.03;96843.05;1708454;83;21069;-79
2022/02/18 02:15:31;;;;;;;3.10;1.47;;;;;;;1.52;92.77;96846.59;1655473;86;21045;-79
2022/02/18 02:18:01;;;;;;;5.40;1.60;;;;;;;1.52;92.93;96851.39;1705471;83;21038;-79
2022/02/18 02:20:28;;;;;;;3.35;1.40;;;;;;;1.54;92.86;96860.05;1705598;83;21082;-79
2022/02/18 02:22:56;;;;;;;3.22;1.60;;;;;;;1.56;92.74;96875.70;1705835;84;21157;-79
2022/02/18 02:25:35;;;;;;;5.10;1.82;;;;;;;1.56;92.58;96884.84;1716012;83;21477;-79
2022/02/18 02:28:03;;;;;;;3.30;1.75;;;;;;;1.53;93.58;96897.50;1719256;83;21414;-80
2022/02/18 02:30:31;;;;;;;2.40;1.42;;;;;;;1.54;93.02;96895.30;1719407;83;21039;-81
2022/02/18 02:33:00;;;;;;;3.58;1.40;;;;;;;1.52;92.18;96905.34;1717821;83;20977;-80
2022/02/18 02:35:28;;;;;;;4.20;1.77;;;;;;;1.41;91.89;96923.30;1717480;83;21066;-80
2022/02/18 02:37:56;;;;;;;4.58;1.80;;;;;;;1.20;92.56;96921.77;1718002;83;21020;-80
2022/02/18 02:40:23;;;;;;;3.50;1.52;;;;;;;1.03;91.86;96913.66;1694660;83;21020;-79
2022/02/18 02:42:51;;;;;;;4.25;1.90;;;;;;;0.93;93.55;96895.06;1719492;83;20980;-79
2022/02/18 02:45:18;;;;;;;4.12;1.60;;;;;;;0.90;92.97;96891.16;1719653;83;21096;-79
2022/02/18 02:47:47;;;;;;;2.52;1.20;;;;;;;0.88;92.67;96912.04;1719540;83;21003;-80
2022/02/18 02:50:16;;;;;;;1.75;1.10;;;;;;;0.87;93.87;96927.27;1717922;83;21007;-80
2022/02/18 02:52:44;;;;;;;1.70;1.05;;;;;;;0.89;94.53;96916.41;1719330;83;21075;-80
2022/02/18 02:55:13;;;;;;;3.65;1.40;;;;;;;0.88;94.08;96929.45;1718438;83;21018;-80
2022/02/18 02:57:43;;;;;;;2.45;1.77;;;;;;;0.84;95.77;96932.53;1719453;83;21052;-80
2022/02/18 03:00:12;;;;;;;1.98;1.20;;;;;;;0.85;95.43;96943.81;1719457;83;21007;-80
2022/02/18 03:02:42;;;;;;;2.92;1.85;;;;;;;0.85;95.11;96946.00;1719451;83;21076;-80
2022/02/18 03:05:10;;;;;;;3.85;1.30;;;;;;;0.89;94.40;96956.84;1718137;83;21075;-80
2022/02/18 03:07:39;;;;;;;3.27;1.20;;;;;;;0.95;92.89;96951.99;1717937;83;21059;-80
2022/02/18 03:10:10;;;;;;;2.20;1.40;;;;;;;1.03;92.63;96959.75;1717112;83;21000;-80
2022/02/18 03:12:36;;;;;;;2.58;1.12;;;;;;;1.10;93.62;96942.30;1718839;82;21430;-80
2022/02/18 03:15:09;;;;;;;1.80;1.12;;;;;;;1.16;93.87;96944.88;1717463;83;21512;-80
2022/02/18 03:17:36;;;;;;;2.65;1.30;;;;;;;1.23;92.72;96943.05;1717937;83;21062;-80
2022/02/18 03:20:19;;;;;;;2.00;0.95;;;;;;;1.27;92.37;96952.16;1716816;83;21039;-79
2022/02/18 03:22:49;;;;;;;1.55;1.00;;;;;;;1.27;92.94;96950.86;1685823;82;20968;-80
2022/02/18 03:25:16;;;;;;;3.33;1.15;;;;;;;1.28;92.54;96947.79;1682272;85;21052;-79
2022/02/18 03:27:43;;;;;;;4.22;1.70;;;;;;;1.30;92.40;96949.97;1687393;85;20993;-79
2022/02/18 03:30:12;;;;;;;2.08;1.20;;;;;;;1.33;92.30;96942.11;1687156;85;21028;-79
2022/02/18 03:32:40;;;;;;;2.45;1.12;;;;;;;1.31;91.74;96942.13;1649435;86;21013;-79
2022/02/18 03:35:08;;;;;;;3.47;1.20;;;;;;;1.28;91.59;96946.06;1644959;87;20997;-79
2022/02/18 03:37:37;;;;;;;2.17;1.30;;;;;;;1.22;91.86;96949.16;1681772;85;21020;-80
2022/02/18 03:40:12;;;;;;;2.83;1.45;;;;;;;1.13;91.79;96944.44;1665191;86;21065;-79
2022/02/18 03:42:39;;;;;;;2.50;1.52;;;;;;;1.07;91.46;96952.79;1720961;83;21074;-79
2022/02/18 03:45:08;;;;;;;3.65;1.85;;;;;;;0.98;90.99;96960.23;1720435;83;21027;-79
2022/02/18 03:47:35;;;;;;;2.30;1.30;;;;;;;0.80;93.38;96963.42;1721125;83;21449;-79
2022/02/18 03:50:03;;;;;;;2.92;1.55;;;;;;;0.78;91.66;96958.22;1721258;83;21424;-78
2022/02/18 03:52:30;;;;;;;3.42;1.50;;;;;;;0.83;92.45;96964.69;1721271;83;21060;-80
2022/02/18 03:54:58;;;;;;;4.90;2.40;;;;;;;0.87;91.93;96957.27;1721391;83;21018;-80
2022/02/18 03:57:24;;;;;;;5.08;1.45;;;;;;;0.90;91.95;96962.48;1696234;83;21414;-80
2022/02/18 03:59:52;;;;;;;6.40;1.60;;;;;;;1.00;91.13;96964.56;1708241;83;20972;-80
2022/02/18 04:02:20;;;;;;;3.47;1.55;;;;;;;1.11;90.65;96968.82;1721144;83;21492;-79
2022/02/18 04:04:46;;;;;;;2.00;1.20;;;;;;;1.16;90.58;96968.37;1721068;83;20992;-79
2022/02/18 04:07:31;;;;;;;;;;;;;;;1.24;90.37;96972.22;1723804;83;21044;-79
2022/02/18 04:10:00;;;;;;;1.92;1.07;;;;;;;1.29;90.62;96969.13;1686276;83;20107;-79
2022/02/18 04:12:27;;;;;;;3.87;1.30;;;;;;;1.31;90.28;96966.05;1693663;82;21406;-79
2022/02/18 04:14:55;;;;;;;2.47;1.30;;;;;;;1.36;90.10;96964.72;1718432;83;20965;-78
2022/02/18 04:17:24;;;;;;;3.33;1.55;;;;;;;1.40;89.78;96963.78;1719931;83;21067;-78
2022/02/18 04:19:55;;;;;;;2.33;1.20;;;;;;;1.42;89.67;96957.66;1721344;83;21046;-78
2022/02/18 04:22:24;;;;;;;3.83;1.50;;;;;;;1.46;89.36;96959.83;1721233;83;21035;-78
2022/02/18 04:24:51;;;;;;;4.37;1.67;;;;;;;1.44;89.40;96957.22;1718138;83;21106;-78
2022/02/18 04:27:21;;;;;;;2.33;1.32;;;;;;;1.45;89.09;96965.48;1696272;83;21012;-78
2022/02/18 04:29:48;;;;;;;5.05;1.37;;;;;;;1.51;87.88;96959.77;1681407;85;21616;-78
2022/02/18 04:32:16;;;;;;;3.75;1.40;;;;;;;1.58;86.59;96970.59;1681328;85;20973;-78
2022/02/18 04:34:42;;;;;;;6.05;1.57;;;;;;;1.61;85.80;96971.00;1681421;85;21005;-79
2022/02/18 04:37:09;;;;;;;5.08;1.60;;;;;;;1.64;87.12;96977.48;1681399;85;21029;-79
2022/02/18 04:39:35;;;;;;;4.08;2.33;;;;;;;1.65;87.55;96975.28;1701043;84;20981;-79
2022/02/18 04:42:03;;;;;;;5.22;2.00;;;;;;;1.65;87.10;96978.77;1709862;84;21422;-79
2022/02/18 04:44:30;;;;;;;3.50;1.72;;;;;;;1.66;87.11;96984.88;1709929;83;20999;-79
2022/02/18 04:46:58;;;;;;;3.12;1.60;;;;;;;1.68;86.24;96987.02;1709663;83;21127;-78
2022/02/18 04:49:24;;;;;;;4.17;1.67;;;;;;;1.74;86.37;96996.09;1709549;84;21107;-79
2022/02/18 04:51:53;;;;;;;4.10;1.72;;;;;;;1.82;83.50;97002.53;1707828;83;20984;-79
2022/02/18 04:54:19;;;;;;;1.77;1.02;;;;;;;1.89;85.00;97014.67;1709733;83;21023;-79
2022/02/18 04:56:45;;;;;;;2.50;1.40;;;;;;;2.03;82.02;97011.89;1709941;83;20991;-79
2022/02/18 04:59:16;;;;;;;3.98;1.27;;;;;;;2.16;81.36;97009.15;1701845;83;21040;-79
2022/02/18 05:01:44;;;;;;;3.02;1.40;;;;;;;2.19;80.89;97018.24;1681419;84;21064;-79
2022/02/18 05:04:10;;;;;;;4.20;1.55;;;;;;;2.20;79.23;97016.08;1681395;85;21041;-78
2022/02/18 05:06:38;;;;;;;3.37;1.27;;;;;;;2.21;80.20;97017.80;1681105;85;21124;-80
2022/02/18 05:09:05;;;;;;;6.70;2.27;;;;;;;2.20;81.01;97028.69;1687219;84;21434;-80
2022/02/18 05:11:31;;;;;;;4.08;1.50;;;;;;;2.23;80.63;97036.51;1709880;83;21016;-80
2022/02/18 05:13:58;;;;;;;4.62;1.60;;;;;;;2.22;77.99;97045.23;1708879;82;21104;-80
2022/02/18 05:16:24;;;;;;;3.80;1.60;;;;;;;2.18;77.90;97044.84;1708341;83;20996;-80
2022/02/18 05:18:55;;;;;;;4.08;1.65;;;;;;;2.25;76.92;97061.33;1709538;84;21004;-80
2022/02/18 05:21:25;;;;;;;4.28;1.20;;;;;;;2.26;75.45;97072.63;1709846;83;21028;-80
2022/02/18 05:23:52;;;;;;;4.37;1.40;;;;;;;2.28;76.19;97077.42;1709781;84;21433;-80
2022/02/18 05:26:18;;;;;;;4.08;1.72;;;;;;;2.27;76.38;97070.01;1709833;83;21504;-80
2022/02/18 05:28:45;;;;;;;5.97;1.62;;;;;;;2.32;75.50;97084.36;1699095;83;20993;-80
2022/02/18 05:31:11;;;;;;;4.10;1.57;;;;;;;2.31;74.75;97087.40;1709940;83;21004;-79
2022/02/18 05:33:38;;;;;;;4.58;1.72;;;;;;;2.29;75.46;97085.26;1709900;83;21588;-80
2022/02/18 05:36:05;;;;;;;15.80;3.22;;;;;;;2.30;75.13;97080.88;1709814;83;21083;-80
2022/02/18 05:38:34;;;;;;;14.65;4.15;;;;;;;2.26;75.97;97083.97;1710017;83;21009;-80
2022/02/18 05:41:01;;;;;;;5.97;2.47;;;;;;;2.21;74.64;97082.70;1687495;83;21005;-80
2022/02/18 05:43:28;;;;;;;5.00;1.65;;;;;;;2.19;74.52;97087.09;1707819;82;22232;-80
2022/02/18 05:45:54;;;;;;;4.22;1.30;;;;;;;2.18;75.87;97092.33;1710027;83;21001;-80
2022/02/18 05:48:21;;;;;;;3.22;1.40;;;;;;;2.14;74.94;97089.31;1709876;83;21072;-79
2022/02/18 05:50:49;;;;;;;4.58;1.45;;;;;;;2.16;73.99;97085.80;1709803;83;20992;-79
2022/02/18 05:53:15;;;;;;;3.95;1.10;;;;;;;2.13;76.11;97098.92;1703697;83;21016;-79
2022/02/18 05:55:43;;;;;;;6.40;1.70;;;;;;;2.09;75.70;97108.98;1709827;83;20996;-79
2022/02/18 05:58:09;;;;;;;3.75;1.50;;;;;;;2.09;76.33;97114.21;1709842;83;20984;-78
2022/02/18 06:00:37;;;;;;;4.33;1.70;;;;;;;2.09;76.32;97122.05;1709946;84;20996;-78
2022/02/18 06:03:03;;;;;;;7.67;2.08;;;;;;;2.01;77.37;97127.36;1709532;84;21557;-78
2022/02/18 06:05:31;;;;;;;4.78;1.92;;;;;;;1.97;77.29;97129.14;1707766;84;21119;-79
2022/02/18 06:07:57;;;;;;;7.87;2.15;;;;;;;1.93;77.60;97130.04;1709956;83;21445;-79
2022/02/18 06:10:24;;;;;;;6.85;2.67;;;;;;;1.90;77.40;97141.81;1709794;83;21031;-79
2022/02/18 06:12:51;;;;;;;11.38;5.30;;;;;;;1.86;78.18;97152.32;1709853;84;20968;-78
2022/02/18 06:15:18;;;;;;;13.88;5.70;;;;;;;1.78;78.79;97153.70;1688115;82;20985;-78
2022/02/18 06:17:45;;;;;;;14.07;5.60;;;;;;;1.67;79.63;97162.45;1684756;84;22438;-78
2022/02/18 06:20:12;;;;;;;17.45;6.65;;;;;;;1.60;80.22;97161.20;1709318;84;20988;-77
2022/02/18 06:22:39;;;;;;;17.70;7.22;;;;;;;1.52;80.14;97170.41;1708253;83;21066;-78
2022/02/18 06:25:09;;;;;;;11.70;5.65;;;;;;;1.43;80.38;97167.42;1709715;83;20969;-78
2022/02/18 06:27:35;;;;;;;20.55;9.30;;;;;;;1.39;80.92;97181.37;1709961;83;21048;-78
2022/02/18 06:30:03;;;;;;;17.42;8.03;;;;;;;1.34;81.00;97181.84;1710016;83;21020;-77
2022/02/18 06:32:30;;;;;;;15.08;7.37;;;;;;;1.26;81.29;97184.06;1691461;84;21036;-77
2022/02/18 06:34:57;;;;;;;12.43;5.42;;;;;;;1.22;81.71;97194.09;1709926;83;21449;-77
2022/02/18 06:37:24;;;;;;;21.77;10.63;;;;;;;1.19;81.74;97201.92;1709792;83;21047;-77
2022/02/18 06:39:51;;;;;;;10.45;3.75;;;;;;;1.19;81.98;97201.92;1709955;83;21477;-78
2022/02/18 06:42:18;;;;;;;9.10;3.33;;;;;;;1.20;82.59;97197.13;1709980;83;21025;-78
2022/02/18 06:44:45;;;;;;;7.12;2.55;;;;;;;1.28;82.49;97193.17;1709273;83;21024;-79
2022/02/18 06:47:12;;;;;;;2.62;1.70;;;;;;;1.36;82.49;97181.41;1709979;83;20961;-78
2022/02/18 06:49:41;;;;;;;7.30;2.00;;;;;;;1.43;82.42;97197.02;1709903;83;20986;-78
2022/02/18 06:52:07;;;;;;;7.53;2.62;;;;;;;1.53;82.36;97192.59;1709889;83;21012;-78
2022/02/18 06:54:34;;;;;;;6.28;2.30;;;;;;;1.65;82.58;97193.38;1709983;83;21059;-78
2022/02/18 06:57:01;;;;;;;7.42;2.10;;;;;;;1.74;82.62;97197.70;1708268;83;21063;-78
2022/02/18 06:59:29;;;;;;;6.72;2.33;;;;;;;1.79;82.35;97206.36;1708799;83;21007;-78
2022/02/18 07:01:56;;;;;;;5.62;1.80;;;;;;;1.89;82.40;97213.25;1709615;84;20968;-78
2022/02/18 07:04:24;;;;;;;4.35;1.70;;;;;;;2.00;81.22;97215.80;1709829;83;21007;-77
2022/02/18 07:06:52;;;;;;;4.53;2.00;;;;;;;2.14;79.62;97222.20;1708826;83;20973;-79
2022/02/18 07:09:21;;;;;;;5.17;1.80;;;;;;;2.29;80.39;97227.76;1708432;83;21051;-81
2022/02/18 07:11:48;;;;;;;7.15;1.87;;;;;;;2.44;77.35;97228.04;1709504;83;21001;-78
2022/02/18 07:14:14;;;;;;;6.47;1.95;;;;;;;2.52;77.74;97215.34;1709686;83;20973;-78
2022/02/18 07:16:44;;;;;;;8.98;2.50;;;;;;;2.54;77.40;97216.19;1709690;84;20977;-78
2022/02/18 07:19:15;;;;;;;6.03;2.05;;;;;;;2.54;77.79;97222.72;1708925;83;21000;-78
2022/02/18 07:21:43;;;;;;;6.10;1.90;;;;;;;2.56;73.32;97228.36;1708239;83;21008;-79
2022/02/18 07:24:11;;;;;;;5.62;1.80;;;;;;;2.61;73.49;97232.23;1709496;83;21144;-79
2022/02/18 07:26:39;;;;;;;4.50;1.60;;;;;;;2.72;72.69;97239.98;1709037;83;21017;-79
2022/02/18 07:29:07;;;;;;;5.05;1.77;;;;;;;2.77;72.90;97233.83;1709477;83;20992;-79
2022/02/18 07:31:35;;;;;;;8.23;2.40;;;;;;;2.85;72.32;97238.09;1709545;83;21071;-78
2022/02/18 07:34:01;;;;;;;9.00;1.98;;;;;;;2.91;73.06;97244.59;1709712;84;21422;-78
2022/02/18 07:36:29;;;;;;;3.83;1.57;;;;;;;3.03;71.74;97247.48;1709163;82;21087;-82
2022/02/18 07:38:55;;;;;;;5.25;1.67;;;;;;;3.10;71.39;97243.05;1707003;84;21023;-83
2022/02/18 07:41:22;;;;;;;6.50;1.72;;;;;;;3.14;71.52;97239.09;1708606;84;21019;-80
2022/02/18 07:43:49;;;;;;;4.87;1.77;;;;;;;3.24;70.00;97254.22;1709645;84;21039;-82
2022/02/18 07:46:15;;;;;;;4.60;1.60;;;;;;;3.30;71.37;97243.70;1709460;84;20984;-82
2022/02/18 07:48:42;;;;;;;5.10;1.92;;;;;;;3.35;70.41;97254.10;1707558;84;20999;-81
2022/02/18 07:51:09;;;;;;;7.70;2.58;;;;;;;3.42;70.98;97258.39;1709736;83;20996;-81
2022/02/18 07:53:36;;;;;;;3.95;1.67;;;;;;;3.58;70.68;97261.23;1708185;84;21021;-81
2022/02/18 07:56:03;;;;;;;4.37;1.70;;;;;;;3.68;69.01;97265.03;1708478;82;22076;-81
2022/02/18 07:58:30;;;;;;;3.83;1.35;;;;;;;3.79;67.89;97260.08;1708305;83;21016;-81
2022/02/18 08:00:56;;;;;;;5.12;1.60;;;;;;;3.86;67.43;97255.16;1711079;83;21008;-81
2022/02/18 08:03:23;;;;;;;5.60;1.98;;;;;;;3.90;67.34;97250.76;1709797;83;21063;-81
2022/02/18 08:05:50;;;;;;;4.60;1.45;;;;;;;3.98;67.96;97247.55;1709887;83;20996;-81
2022/02/18 08:08:20;;;;;;;4.37;1.80;;;;;;;3.98;67.12;97259.35;1709793;83;21004;-81
2022/02/18 08:10:45;;;;;;;3.65;1.50;;;;;;;4.00;66.83;97269.82;1709919;83;21019;-81
2022/02/18 08:13:11;;;;;;;4.97;1.65;;;;;;;4.04;65.96;97281.57;1709856;83;21478;-81
2022/02/18 08:15:38;;;;;;;4.97;1.40;;;;;;;4.06;66.88;97284.14;1709911;83;21023;-81
2022/02/18 08:18:05;;;;;;;4.75;1.70;;;;;;;4.06;65.70;97277.16;1709812;83;21075;-81
2022/02/18 08:20:31;;;;;;;4.00;1.52;;;;;;;4.13;65.34;97296.30;1709897;83;21422;-81
2022/02/18 08:22:58;;;;;;;6.40;1.75;;;;;;;4.14;66.38;97290.15;1709829;83;21490;-81
2022/02/18 08:25:25;;;;;;;4.25;1.32;;;;;;;4.23;65.98;97289.13;1709780;83;20984;-81
2022/02/18 08:27:51;;;;;;;3.60;1.60;;;;;;;4.29;65.64;97285.13;1709789;83;21133;-81
2022/02/18 08:30:18;;;;;;;4.42;1.55;;;;;;;4.35;65.34;97284.14;1711355;83;21031;-81
2022/02/18 08:32:44;;;;;;;4.17;1.57;;;;;;;4.42;64.52;97280.55;1709745;83;21048;-81
2022/02/18 08:35:11;;;;;;;3.92;1.57;;;;;;;4.51;65.68;97290.02;1709933;83;21013;-81
2022/02/18 08:37:37;;;;;;;6.65;1.60;;;;;;;4.58;63.22;97304.78;1709762;83;21056;-81
2022/02/18 08:40:05;;;;;;;4.37;1.30;;;;;;;4.62;63.86;97305.13;1709860;83;21012;-81
2022/02/18 08:42:32;;;;;;;4.55;1.47;;;;;;;4.70;64.25;97304.98;1709915;83;21422;-81
2022/02/18 08:44:59;;;;;;;4.58;1.42;;;;;;;4.74;63.76;97296.17;1709707;83;21052;-82
2022/02/18 08:47:26;;;;;;;5.42;1.57;;;;;;;4.82;63.62;97313.56;1709948;83;20977;-82
2022/02/18 08:49:54;;;;;;;4.72;1.62;;;;;;;4.87;62.38;97292.88;1709851;83;21509;-82
2022/02/18 08:52:20;;;;;;;4.20;1.75;;;;;;;4.86;61.16;97295.09;1709798;84;20981;-83
2022/02/18 08:54:47;;;;;;;3.42;1.42;;;;;;;4.86;61.39;97300.34;1709946;83;21015;-82
2022/02/18 08:57:13;;;;;;;10.72;4.92;;;;;;;4.84;62.02;97315.27;1709862;84;21035;-80
2022/02/18 08:59:40;;;;;;;4.80;2.45;;;;;;;4.90;61.93;97303.77;1709680;84;21016;-82
2022/02/18 09:02:09;;;;;;;3.35;1.52;;;;;;;4.94;62.41;97298.05;1709906;83;21079;-82
2022/02/18 09:04:35;;;;;;;3.70;1.32;;;;;;;4.96;61.18;97301.50;1709849;83;21015;-82
2022/02/18 09:07:03;;;;;;;5.58;1.60;;;;;;;4.99;61.74;97297.52;1709730;84;20961;-82
2022/02/18 09:09:29;;;;;;;3.35;1.32;;;;;;;5.08;60.91;97305.22;1709673;84;21044;-80
2022/02/18 09:11:56;;;;;;;4.55;1.32;;;;;;;5.13;61.81;97299.44;1709839;83;21032;-78
2022/02/18 09:14:22;;;;;;;5.58;1.67;;;;;;;5.20;63.03;97305.44;1709809;84;21004;-78
2022/02/18 09:16:52;;;;;;;5.15;1.37;;;;;;;5.26;60.49;97318.45;1710190;83;21040;-78
2022/02/18 09:19:18;;;;;;;3.65;1.30;;;;;;;5.23;59.28;97337.35;1709667;83;21071;-78
2022/02/18 09:21:45;;;;;;;3.52;1.40;;;;;;;5.24;59.12;97318.91;1709866;84;21438;-77
2022/02/18 09:24:11;;;;;;;4.03;1.15;;;;;;;5.25;58.76;97318.47;1709794;83;20964;-78
2022/02/18 09:26:38;;;;;;;3.52;1.17;;;;;;;5.29;58.93;97310.48;1709714;83;21011;-79
2022/02/18 09:29:04;;;;;;;2.27;1.10;;;;;;;5.31;60.26;97297.80;1709794;83;21450;-80
2022/02/18 09:31:31;;;;;;;2.95;1.15;;;;;;;5.33;59.02;97319.20;1709795;83;21015;-80
2022/02/18 09:33:57;;;;;;;2.00;1.10;;;;;;;5.38;57.94;97317.34;1709816;83;21091;-79
2022/02/18 09:36:24;;;;;;;5.00;1.12;;;;;;;5.44;55.46;97330.80;1709923;84;21036;-80
2022/02/18 09:38:51;;;;;;;5.80;1.35;;;;;;;5.48;56.15;97336.41;1709805;83;21011;-79
2022/02/18 09:41:17;;;;;;;3.67;1.25;;;;;;;5.54;57.86;97323.17;1709934;83;21500;-81
2022/02/18 09:43:48;;;;;;;4.45;1.30;;;;;;;5.63;57.86;97331.75;1709875;83;21028;-81
2022/02/18 09:46:15;;;;;;;3.02;1.00;;;;;;;5.69;55.61;97328.98;1710037;83;21016;-81
2022/02/18 09:48:42;;;;;;;3.72;1.17;;;;;;;5.73;55.61;97321.92;1709879;83;21004;-81
2022/02/18 09:51:08;;;;;;;2.35;1.00;;;;;;;5.88;56.24;97324.66;1710049;83;21078;-80
2022/02/18 09:53:36;;;;;;;4.42;1.42;;;;;;;6.01;56.60;97323.50;1709441;82;21031;-81
2022/02/18 09:56:06;;;;;;;2.67;1.00;;;;;;;6.09;55.17;97327.77;1709631;84;21012;-78
2022/02/18 09:58:36;;;;;;;1.82;1.10;;;;;;;6.10;54.99;97317.19;1702782;84;21020;-80
2022/02/18 10:01:03;;;;;;;2.40;1.22;;;;;;;6.17;55.53;97325.81;1705480;82;21031;-81
2022/02/18 10:03:30;;;;;;;7.33;1.50;;;;;;;6.32;54.23;97321.51;1708191;82;21012;-79
2022/02/18 10:05:57;;;;;;;6.30;1.55;;;;;;;6.37;54.11;97323.17;1707920;83;20974;-78
2022/02/18 10:08:25;;;;;;;4.47;1.30;;;;;;;6.33;53.11;97331.16;1708189;83;21044;-79
2022/02/18 10:11:07;;;;;;;3.30;1.42;;;;;;;6.32;52.93;97331.19;1708866;83;20974;-80
2022/02/18 10:13:40;;;;;;;2.85;0.90;;;;;;;6.50;52.60;97335.59;1709423;83;21044;-79
2022/02/18 10:16:23;;;;;;;1.82;1.07;;;;;;;6.62;51.72;97334.43;1709532;83;21033;-79
2022/02/18 10:18:57;;;;;;;4.65;1.60;;;;;;;6.75;52.68;97317.44;1709656;83;21036;-79
2022/02/18 10:21:38;;;;;;;3.67;1.25;;;;;;;6.89;52.76;97330.71;1710023;83;21032;-79
2022/02/18 10:24:17;;;;;;;5.03;1.40;;;;;;;6.94;52.08;97318.28;1709788;83;21025;-80
2022/02/18 10:26:50;;;;;;;4.08;1.20;;;;;;;6.94;49.19;97315.18;1717968;82;21048;-79
2022/02/18 10:29:25;;;;;;;3.45;1.32;;;;;;;7.09;50.75;97303.39;1737117;82;21411;-79
2022/02/18 10:32:14;;;;;;;5.25;1.55;;;;;;;7.19;50.93;97316.32;1739038;82;20953;-77
2022/02/18 10:34:57;;;;;;;4.33;1.20;;;;;;;7.29;51.27;97307.70;1738760;82;21439;-77
2022/02/18 10:37:27;;;;;;;3.37;0.80;;;;;;;7.42;50.62;97314.84;1738930;82;21473;-79
2022/02/18 10:40:14;;;;;;;3.80;0.88;;;;;;;7.55;47.61;97342.56;1739025;82;20988;-79
2022/02/18 10:42:43;;;;;;;1.77;0.75;;;;;;;7.56;45.36;97315.75;1710966;82;20965;-79
2022/02/18 10:45:15;;;;;;;3.85;0.80;;;;;;;7.64;44.38;97329.12;1738883;82;21048;-79
2022/02/18 10:47:43;;;;;;;3.08;0.98;;;;;;;7.70;43.06;97324.58;1738902;82;20993;-79
2022/02/18 10:50:26;;;;;;;1.65;1.07;;;;;;;7.73;44.06;97325.82;1738955;82;20973;-79
2022/02/18 10:53:17;;;;;;;3.27;1.02;;;;;;;7.86;44.18;97332.48;1739092;82;21013;-79
2022/02/18 10:56:00;;;;;;;1.80;0.90;;;;;;;7.99;44.88;97333.42;1739060;82;21064;-78
2022/02/18 10:58:30;;;;;;;1.77;0.70;;;;;;;8.03;43.32;97344.30;1738969;82;20973;-78
2022/02/18 11:01:22;;;;;;;1.02;0.80;;;;;;;8.76;41.89;97338.58;1738965;82;21411;-78
2022/02/18 11:04:04;;;;;;;1.50;0.82;;;;;;;9.79;40.67;97331.07;1739245;82;21470;-78
2022/02/18 11:06:34;;;;;;;3.05;0.75;;;;;;;10.69;37.70;97326.30;1738826;82;21009;-79
2022/02/18 11:09:07;;;;;;;1.40;0.75;;;;;;;11.63;37.24;97313.95;1739015;82;21017;-78
2022/02/18 11:11:44;;;;;;;1.75;1.00;;;;;;;12.11;33.93;97322.86;1738887;82;21041;-79
2022/02/18 11:14:15;;;;;;;2.42;1.00;;;;;;;12.54;33.99;97310.19;1739178;82;20973;-79
2022/02/18 11:16:55;;;;;;;2.37;0.88;;;;;;;13.16;31.64;97318.23;1739028;82;20996;-79
2022/02/18 11:19:23;;;;;;;2.80;0.90;;;;;;;13.31;31.68;97325.91;1739021;82;21016;-79
2022/02/18 11:21:49;;;;;;;1.85;0.90;;;;;;;13.78;31.47;97318.19;1738928;82;21079;-79
2022/02/18 11:24:21;;;;;;;2.25;0.80;;;;;;;14.02;31.05;97332.46;1739124;82;20929;-79
2022/02/18 11:26:49;;;;;;;2.35;0.90;;;;;;;14.41;31.09;97315.67;1738890;82;21024;-79
2022/02/18 11:29:16;;;;;;;1.62;0.85;;;;;;;14.18;28.06;97344.48;1696679;85;21018;-79
2022/02/18 11:31:50;;;;;;;3.15;0.80;;;;;;;14.63;29.31;97327.80;1683073;85;20997;-80
2022/02/18 11:34:34;;;;;;;1.17;0.80;;;;;;;14.55;28.49;97327.38;1696482;84;21081;-79
2022/02/18 11:37:55;;;;;;;2.37;1.12;;;;;;;15.07;27.88;97331.53;1688236;84;21007;-79
2022/02/18 11:40:47;;;;;;;1.82;0.78;;;;;;;15.24;28.05;97328.37;1739298;82;20997;-79
2022/02/18 11:43:27;;;;;;;2.55;1.00;;;;;;;14.52;28.28;97343.07;1739164;82;20996;-79
2022/02/18 11:46:04;;;;;;;3.10;0.90;;;;;;;14.18;27.82;97339.61;1696497;84;21037;-79
2022/02/18 11:48:46;;;;;;;2.58;1.00;;;;;;;14.59;29.45;97325.80;1683053;85;21017;-78
2022/02/18 11:51:19;;;;;;;2.27;0.75;;;;;;;14.88;27.09;97327.77;1696687;85;21044;-79